Shymkent Airport

Airport
ICAO code: 
UAII
IATA Code: 
CIT
Summary
ICAO Region: 
APAC
Territory: 
Location: 
Shymkent,
Serving: 
Shymkent
Elevation: 
1384 ft
Coordinates: 
Aerial View: 
42° 21' 47.197" N, 69° 28' 46.556" E
Airport BS: 
Bird Strike
Airport CFIT: 
Altimeter Temperature Error Correction
Metar
Observation
UAII 070330Z 11001MPS 7000 NSC 04/01 Q1023 NOSIG RMK QFE732/0976
Station
Shymkent
Date/Time
2021-12-07 03:30:00
Wind direction
110°
Lowest cloud amount
n/a
Temperature
4°C
Dew point
1°C
Humidity
80%
QNH
1023 hPa
Weather condition
n/a

Description

International airport serving the city of Shymkent, Kazakhstan.

Climatology

Cold Semi-arid climate (Köppen climate classification BSk). - Hot, sometimes extremely hot summers and cold, sometimes very cold winters. Some snowfall during the winter. Areas featuring cold semi-arid climates are sometimes subject to major temperature swings during a 24 hour period.

Runways

Designator Length Width Surface Rops
10/28 2800 44 CON No/No
Airport map: 
Aerial View: 

SKYbrary Partners:

Safety knowledge contributed by: